Time;durP1;ratioP1;P1;durP2;ratioP2;P2;SDS_P1;SDS_P2;PMS_P1;PMS_P2;Temp;Humidity;BMP_temperature;BMP_pressure;BME280_temperature;BME280_humidity;BME280_pressure;Samples;Min_cycle;Max_cycle;Signal;HPM_P1;HPM_P2
2021/03/31 00:01:14;;;;;;;;;;;;;;;;;;5039355;28;19913;-81
2021/03/31 00:03:40;;;;;;;;;;;;;;;;;;5044921;28;20353;-81
2021/03/31 00:06:05;;;;;;;;;;;;;;;;;;5042624;28;19909;-81
2021/03/31 00:08:31;;;;;;;;;;;;;;;;;;5017642;28;19912;-81
2021/03/31 00:10:56;;;;;;;;;;;;;;;;;;5042493;28;20371;-81
2021/03/31 00:13:22;;;;;;;;;;;;;;;;;;5042767;28;19959;-81
2021/03/31 00:15:47;;;;;;;;;;;;;;;;;;5042560;28;19908;-81
2021/03/31 00:18:13;;;;;;;;;;;;;;;;;;5034232;28;19934;-82
2021/03/31 00:20:38;;;;;;;;;;;;;;;;;;5057512;28;20266;-81
2021/03/31 00:23:07;;;;;;;;;;;;;;;;;;5047816;28;20382;-81
2021/03/31 00:25:32;;;;;;;;;;;;;;;;;;5017987;28;20341;-81
2021/03/31 00:27:57;;;;;;;;;;;;;;;;;;5033940;28;19936;-81
2021/03/31 00:30:23;;;;;;;;;;;;;;;;;;5034314;28;19923;-81
2021/03/31 00:32:49;;;;;;;;;;;;;;;;;;5042499;28;20015;-81
2021/03/31 00:35:14;;;;;;;;;;;;;;;;;;5034300;28;19971;-81
2021/03/31 00:37:39;;;;;;;;;;;;;;;;;;5042012;28;19943;-81
2021/03/31 00:40:09;;;;;;;;;;;;;;;;;;5042052;28;19944;-81
2021/03/31 00:42:34;;;;;;;;;;;;;;;;;;5025494;28;19951;-81
2021/03/31 00:44:59;;;;;;;;;;;;;;;;;;5050265;28;19947;-80
2021/03/31 00:47:25;;;;;;;;;;;;;;;;;;5034041;28;19934;-80
2021/03/31 00:49:50;;;;;;;;;;;;;;;;;;5059121;28;19909;-80
2021/03/31 00:52:15;;;;;;;;;;;;;;;;;;5050140;28;19958;-80
2021/03/31 00:54:41;;;;;;;;;;;;;;;;;;5050114;28;19908;-80
2021/03/31 00:57:06;;;;;;;;;;;;;;;;;;5016867;28;19966;-80
2021/03/31 00:59:31;;;;;;;;;;;;;;;;;;5033528;28;19913;-80
2021/03/31 01:01:56;;;;;;;;;;;;;;;;;;5017311;28;19913;-80
2021/03/31 01:04:22;;;;;;;;;;;;;;;;;;5033635;28;20298;-80
2021/03/31 01:06:47;;;;;;;;;;;;;;;;;;5017512;28;19990;-80
2021/03/31 01:09:12;;;;;;;;;;;;;;;;;;5041956;28;19913;-80
2021/03/31 01:11:49;;;;;;;;;;;;;;;;;;5034001;28;19909;-80
2021/03/31 01:14:33;;;;;;;;;;;;;;;;;;5035531;28;19913;-81
2021/03/31 01:16:59;;;;;;;;;;;;;;;;;;5070625;28;19908;-80
2021/03/31 01:19:43;;;;;;;;;;;;;;;;;;5043696;28;19920;-80
2021/03/31 01:22:14;;;;;;;;;;;;;;;;;;5063757;28;19991;-80
2021/03/31 01:24:58;;;;;;;;;;;;;;;;;;5046163;28;19951;-81
2021/03/31 01:27:44;;;;;;;;;;;;;;;;;;5061229;28;20012;-81
2021/03/31 01:30:12;;;;;;;;;;;;;;;;;;5053234;28;19916;-81
2021/03/31 01:32:58;;;;;;;;;;;;;;;;;;5045671;28;20073;-81
2021/03/31 01:35:24;;;;;;;;;;;;;;;;;;5037147;28;19909;-81
2021/03/31 01:37:50;;;;;;;;;;;;;;;;;;5046258;28;19947;-82
2021/03/31 01:40:16;;;;;;;;;;;;;;;;;;5037230;28;19915;-81
2021/03/31 01:42:44;;;;;;;;;;;;;;;;;;5045538;28;19912;-81
2021/03/31 01:45:10;;;;;;;;;;;;;;;;;;5045946;28;20339;-81
2021/03/31 01:47:37;;;;;;;;;;;;;;;;;;5037449;28;19956;-81
2021/03/31 01:50:03;;;;;;;;;;;;;;;;;;5045033;28;19948;-81
2021/03/31 01:52:28;;;;;;;;;;;;;;;;;;5029019;28;19989;-81
2021/03/31 01:54:54;;;;;;;;;;;;;;;;;;5020238;28;19927;-81
2021/03/31 01:57:21;;;;;;;;;;;;;;;;;;5044980;28;19948;-82
2021/03/31 01:59:46;;;;;;;;;;;;;;;;;;5034401;28;19912;-81
2021/03/31 02:02:12;;;;;;;;;;;;;;;;;;5020267;28;19919;-81
2021/03/31 02:04:38;;;;;;;;;;;;;;;;;;5036513;28;19909;-81
2021/03/31 02:07:04;;;;;;;;;;;;;;;;;;5045132;28;20000;-82
2021/03/31 02:09:29;;;;;;;;;;;;;;;;;;5044893;28;19912;-81
2021/03/31 02:11:55;;;;;;;;;;;;;;;;;;5037053;28;19909;-81
2021/03/31 02:14:20;;;;;;;;;;;;;;;;;;5064246;28;19917;-81
2021/03/31 02:16:45;;;;;;;;;;;;;;;;;;5044945;28;20317;-81
2021/03/31 02:19:12;;;;;;;;;;;;;;;;;;5036184;28;19948;-81
2021/03/31 02:21:37;;;;;;;;;;;;;;;;;;5044788;28;19912;-81
2021/03/31 02:24:03;;;;;;;;;;;;;;;;;;5036129;28;19916;-81
2021/03/31 02:26:28;;;;;;;;;;;;;;;;;;5019223;28;19999;-81
2021/03/31 02:28:53;;;;;;;;;;;;;;;;;;5052894;28;20641;-81
2021/03/31 02:31:19;;;;;;;;;;;;;;;;;;5044529;28;20121;-82
2021/03/31 02:33:44;;;;;;;;;;;;;;;;;;5019197;28;19924;-81
2021/03/31 02:36:13;;;;;;;;;;;;;;;;;;5036421;28;20328;-80
2021/03/31 02:38:38;;;;;;;;;;;;;;;;;;5044556;28;19919;-81
2021/03/31 02:41:03;;;;;;;;;;;;;;;;;;5019278;28;19908;-81
2021/03/31 02:43:29;;;;;;;;;;;;;;;;;;5035933;28;19970;-81
2021/03/31 02:45:54;;;;;;;;;;;;;;;;;;5019511;28;19913;-81
2021/03/31 02:48:20;;;;;;;;;;;;;;;;;;5044181;28;19923;-81
2021/03/31 02:50:46;;;;;;;;;;;;;;;;;;5044092;28;19951;-81
2021/03/31 02:53:11;;;;;;;;;;;;;;;;;;5036300;28;19917;-80
2021/03/31 02:55:39;;;;;;;;;;;;;;;;;;5044144;28;19908;-81
2021/03/31 02:58:05;;;;;;;;;;;;;;;;;;5018947;28;19923;-81
2021/03/31 03:00:31;;;;;;;;;;;;;;;;;;5035391;28;20401;-81
2021/03/31 03:02:58;;;;;;;;;;;;;;;;;;5029907;28;19912;-81
2021/03/31 03:05:23;;;;;;;;;;;;;;;;;;5035577;28;19913;-81
2021/03/31 03:07:49;;;;;;;;;;;;;;;;;;5035567;28;19912;-81
2021/03/31 03:10:14;;;;;;;;;;;;;;;;;;5043849;28;19920;-81
2021/03/31 03:12:53;;;;;;;;;;;;;;;;;;5019114;28;19920;-81
2021/03/31 03:15:19;;;;;;;;;;;;;;;;;;5026376;28;19909;-81
2021/03/31 03:17:45;;;;;;;;;;;;;;;;;;5035127;28;19978;-81
2021/03/31 03:20:10;;;;;;;;;;;;;;;;;;5043782;28;19955;-81
2021/03/31 03:22:37;;;;;;;;;;;;;;;;;;5018851;28;20367;-80
2021/03/31 03:25:02;;;;;;;;;;;;;;;;;;5043142;28;19904;-81
2021/03/31 03:27:28;;;;;;;;;;;;;;;;;;5045791;28;19958;-81
2021/03/31 03:29:53;;;;;;;;;;;;;;;;;;5018607;28;19908;-81
2021/03/31 03:32:18;;;;;;;;;;;;;;;;;;5043298;28;19974;-81
2021/03/31 03:34:44;;;;;;;;;;;;;;;;;;5034757;28;19920;-81
2021/03/31 03:37:09;;;;;;;;;;;;;;;;;;5050695;28;20333;-81
2021/03/31 03:39:35;;;;;;;;;;;;;;;;;;5018035;28;19910;-82
2021/03/31 03:42:00;;;;;;;;;;;;;;;;;;5043370;28;19920;-81
2021/03/31 03:44:26;;;;;;;;;;;;;;;;;;5043339;28;19908;-79
2021/03/31 03:46:53;;;;;;;;;;;;;;;;;;5034814;28;19909;-79
2021/03/31 03:49:18;;;;;;;;;;;;;;;;;;5042982;28;19909;-79
2021/03/31 03:51:44;;;;;;;;;;;;;;;;;;5051562;28;19924;-79
2021/03/31 03:54:09;;;;;;;;;;;;;;;;;;5043001;28;19920;-79
2021/03/31 03:56:35;;;;;;;;;;;;;;;;;;5034591;28;19913;-79
2021/03/31 03:59:19;;;;;;;;;;;;;;;;;;5042691;28;19975;-79
2021/03/31 04:01:45;;;;;;;;;;;;;;;;;;5059350;28;19920;-79
2021/03/31 04:04:10;;;;;;;;;;;;;;;;;;5017782;28;19913;-79
2021/03/31 04:06:35;;;;;;;;;;;;;;;;;;5026001;28;19908;-79
2021/03/31 04:09:01;;;;;;;;;;;;;;;;;;5050691;28;20523;-79
2021/03/31 04:11:26;;;;;;;;;;;;;;;;;;5034426;28;19916;-79
2021/03/31 04:13:52;;;;;;;;;;;;;;;;;;5039767;28;19935;-80
2021/03/31 04:16:17;;;;;;;;;;;;;;;;;;5042812;28;19914;-79
2021/03/31 04:18:43;;;;;;;;;;;;;;;;;;5034185;28;19909;-79
2021/03/31 04:21:08;;;;;;;;;;;;;;;;;;5034078;28;19908;-79
2021/03/31 04:23:33;;;;;;;;;;;;;;;;;;5026041;28;19967;-79
2021/03/31 04:25:59;;;;;;;;;;;;;;;;;;5017865;28;19915;-79
2021/03/31 04:28:24;;;;;;;;;;;;;;;;;;5059604;28;19975;-80
2021/03/31 04:30:50;;;;;;;;;;;;;;;;;;5042286;28;19916;-79
2021/03/31 04:33:15;;;;;;;;;;;;;;;;;;5017855;28;20390;-79
2021/03/31 04:35:40;;;;;;;;;;;;;;;;;;5042404;28;19928;-80
2021/03/31 04:38:12;;;;;;;;;;;;;;;;;;5042569;28;19915;-79
2021/03/31 04:40:54;;;;;;;;;;;;;;;;;;5050332;28;19909;-79
2021/03/31 04:43:20;;;;;;;;;;;;;;;;;;5057802;28;20330;-80
2021/03/31 04:45:45;;;;;;;;;;;;;;;;;;5059079;28;20005;-79
2021/03/31 04:48:11;;;;;;;;;;;;;;;;;;5033814;28;19913;-79
2021/03/31 04:50:36;;;;;;;;;;;;;;;;;;5042197;28;20011;-79
2021/03/31 04:53:01;;;;;;;;;;;;;;;;;;5033771;28;19931;-79
2021/03/31 04:55:27;;;;;;;;;;;;;;;;;;5050566;28;19909;-80
2021/03/31 04:57:52;;;;;;;;;;;;;;;;;;5041765;28;19912;-79
2021/03/31 05:00:17;;;;;;;;;;;;;;;;;;5033639;28;19962;-79
2021/03/31 05:02:43;;;;;;;;;;;;;;;;;;5041958;28;19913;-78
2021/03/31 05:05:08;;;;;;;;;;;;;;;;;;5058587;28;20286;-79
2021/03/31 05:07:33;;;;;;;;;;;;;;;;;;5033828;28;19955;-79
2021/03/31 05:10:00;;;;;;;;;;;;;;;;;;5041755;28;19999;-80
2021/03/31 05:12:25;;;;;;;;;;;;;;;;;;5033539;28;20016;-79
2021/03/31 05:14:50;;;;;;;;;;;;;;;;;;5033956;28;19995;-81
2021/03/31 05:17:16;;;;;;;;;;;;;;;;;;5033533;28;19916;-80
2021/03/31 05:19:41;;;;;;;;;;;;;;;;;;5042070;28;20414;-79
2021/03/31 05:22:08;;;;;;;;;;;;;;;;;;5042019;28;19919;-81
2021/03/31 05:24:33;;;;;;;;;;;;;;;;;;5033660;28;19908;-78
2021/03/31 05:26:58;;;;;;;;;;;;;;;;;;5041813;28;20282;-79
2021/03/31 05:29:23;;;;;;;;;;;;;;;;;;5031072;28;19990;-79
2021/03/31 05:31:49;;;;;;;;;;;;;;;;;;5056799;28;19956;-79
2021/03/31 05:34:14;;;;;;;;;;;;;;;;;;5010923;28;19917;-78
2021/03/31 05:36:39;;;;;;;;;;;;;;;;;;5033473;28;19924;-78
2021/03/31 05:39:05;;;;;;;;;;;;;;;;;;5024832;28;19912;-78
2021/03/31 05:41:30;;;;;;;;;;;;;;;;;;5024662;28;19917;-79
2021/03/31 05:43:55;;;;;;;;;;;;;;;;;;5041838;28;19923;-79
2021/03/31 05:46:21;;;;;;;;;;;;;;;;;;5033189;28;20012;-78
2021/03/31 05:48:46;;;;;;;;;;;;;;;;;;5033134;28;20367;-78
2021/03/31 05:51:11;;;;;;;;;;;;;;;;;;5041286;28;19912;-79
2021/03/31 05:53:37;;;;;;;;;;;;;;;;;;5049087;28;19913;-79
2021/03/31 05:56:04;;;;;;;;;;;;;;;;;;5016404;28;19940;-79
2021/03/31 05:58:30;;;;;;;;;;;;;;;;;;5017045;28;20244;-79
2021/03/31 06:00:55;;;;;;;;;;;;;;;;;;5060425;28;19936;-81
2021/03/31 06:03:21;;;;;;;;;;;;;;;;;;5020360;28;19947;-80
2021/03/31 06:05:46;;;;;;;;;;;;;;;;;;5028726;28;19952;-80
2021/03/31 06:08:11;;;;;;;;;;;;;;;;;;5020524;28;19908;-81
2021/03/31 06:10:38;;;;;;;;;;;;;;;;;;5044862;28;19916;-80
2021/03/31 06:13:04;;;;;;;;;;;;;;;;;;5053253;28;19909;-80
2021/03/31 06:15:38;;;;;;;;;;;;;;;;;;5036810;28;19919;-80
2021/03/31 06:18:07;;;;;;;;;;;;;;;;;;5036588;28;19913;-81
2021/03/31 06:20:50;;;;;;;;;;;;;;;;;;5053175;28;19913;-80
2021/03/31 06:23:47;;;;;;;;;;;;;;;;;;5043294;28;19917;-81
2021/03/31 06:26:17;;;;;;;;;;;;;;;;;;5035935;28;19912;-80
2021/03/31 06:28:42;;;;;;;;;;;;;;;;;;5035313;28;19925;-81
2021/03/31 06:31:08;;;;;;;;;;;;;;;;;;5019598;28;20025;-80
2021/03/31 06:33:34;;;;;;;;;;;;;;;;;;5020052;28;20328;-79
2021/03/31 06:35:59;;;;;;;;;;;;;;;;;;5042050;28;19913;-80
2021/03/31 06:38:29;;;;;;;;;;;;;;;;;;5044486;28;20347;-80
2021/03/31 06:40:59;;;;;;;;;;;;;;;;;;5042892;28;19916;-80
2021/03/31 06:43:32;;;;;;;;;;;;;;;;;;5019991;28;20479;-79
2021/03/31 06:46:02;;;;;;;;;;;;;;;;;;5020624;28;19909;-84
2021/03/31 06:48:29;;;;;;;;;;;;;;;;;;5030267;28;20007;-81
2021/03/31 06:50:54;;;;;;;;;;;;;;;;;;5043956;28;19909;-78
2021/03/31 06:53:27;;;;;;;;;;;;;;;;;;5052342;28;19912;-77
2021/03/31 06:56:02;;;;;;;;;;;;;;;;;;5061410;28;19912;-78
2021/03/31 06:58:27;;;;;;;;;;;;;;;;;;5049459;28;19916;-77
2021/03/31 07:00:53;;;;;;;;;;;;;;;;;;5034594;28;19917;-77
2021/03/31 07:03:18;;;;;;;;;;;;;;;;;;5053895;28;19908;-77
2021/03/31 07:05:43;;;;;;;;;;;;;;;;;;5060556;28;19908;-77
2021/03/31 07:08:14;;;;;;;;;;;;;;;;;;5043929;28;19912;-77
2021/03/31 07:10:44;;;;;;;;;;;;;;;;;;5036017;28;20345;-77
2021/03/31 07:13:10;;;;;;;;;;;;;;;;;;5058710;28;19924;-77
2021/03/31 07:15:35;;;;;;;;;;;;;;;;;;5046362;28;19909;-77
2021/03/31 07:18:01;;;;;;;;;;;;;;;;;;5052034;28;19917;-77
2021/03/31 07:20:27;;;;;;;;;;;;;;;;;;5060263;28;19911;-77
2021/03/31 07:22:53;;;;;;;;;;;;;;;;;;5042879;28;19912;-77
2021/03/31 07:25:18;;;;;;;;;;;;;;;;;;5035610;28;19913;-77
2021/03/31 07:27:44;;;;;;;;;;;;;;;;;;5051341;28;19935;-77
2021/03/31 07:30:11;;;;;;;;;;;;;;;;;;5060068;28;19912;-77
2021/03/31 07:32:41;;;;;;;;;;;;;;;;;;5052296;28;19924;-77
2021/03/31 07:35:07;;;;;;;;;;;;;;;;;;5060034;28;19908;-77
2021/03/31 07:37:32;;;;;;;;;;;;;;;;;;5059777;28;19916;-77
2021/03/31 07:39:57;;;;;;;;;;;;;;;;;;5034944;28;20274;-77
2021/03/31 07:42:23;;;;;;;;;;;;;;;;;;5043109;28;20389;-77
2021/03/31 07:44:48;;;;;;;;;;;;;;;;;;5043346;28;19909;-77
2021/03/31 07:47:13;;;;;;;;;;;;;;;;;;5018483;28;19912;-77
2021/03/31 07:49:39;;;;;;;;;;;;;;;;;;5042961;28;19909;-77
2021/03/31 07:52:06;;;;;;;;;;;;;;;;;;5051086;28;19917;-77
2021/03/31 07:54:34;;;;;;;;;;;;;;;;;;5034964;28;20018;-77
2021/03/31 07:57:18;;;;;;;;;;;;;;;;;;5059558;28;19912;-77
2021/03/31 07:59:44;;;;;;;;;;;;;;;;;;5050771;28;19909;-77
2021/03/31 08:02:09;;;;;;;;;;;;;;;;;;5059299;28;19971;-77
2021/03/31 08:04:34;;;;;;;;;;;;;;;;;;5034595;28;19912;-77
2021/03/31 08:07:01;;;;;;;;;;;;;;;;;;5042996;28;19912;-77
2021/03/31 08:09:30;;;;;;;;;;;;;;;;;;5034627;28;20050;-78
2021/03/31 08:12:02;;;;;;;;;;;;;;;;;;5050938;28;19932;-77
2021/03/31 08:14:29;;;;;;;;;;;;;;;;;;5042664;28;20371;-77
2021/03/31 08:16:55;;;;;;;;;;;;;;;;;;5050775;28;19912;-77
2021/03/31 08:19:31;;;;;;;;;;;;;;;;;;5028285;28;19919;-77
2021/03/31 08:21:57;;;;;;;;;;;;;;;;;;5033053;28;19935;-78
2021/03/31 08:24:46;;;;;;;;;;;;;;;;;;5030475;28;20373;-76
2021/03/31 08:27:12;;;;;;;;;;;;;;;;;;5056573;28;20395;-77
2021/03/31 08:29:37;;;;;;;;;;;;;;;;;;5042570;28;20011;-77
2021/03/31 08:32:04;;;;;;;;;;;;;;;;;;5050262;28;20339;-76
2021/03/31 08:34:30;;;;;;;;;;;;;;;;;;5034139;28;19909;-77
2021/03/31 08:36:56;;;;;;;;;;;;;;;;;;5034003;28;20355;-77
2021/03/31 08:39:21;;;;;;;;;;;;;;;;;;5058892;28;19920;-77
2021/03/31 08:41:51;;;;;;;;;;;;;;;;;;5050574;28;19916;-77
2021/03/31 08:44:17;;;;;;;;;;;;;;;;;;5034399;28;19908;-77
2021/03/31 08:46:43;;;;;;;;;;;;;;;;;;5051069;28;19920;-76
2021/03/31 08:49:20;;;;;;;;;;;;;;;;;;5042619;28;19916;-76
2021/03/31 08:51:47;;;;;;;;;;;;;;;;;;5051665;28;19919;-77
2021/03/31 08:54:12;;;;;;;;;;;;;;;;;;5050339;28;19916;-77
2021/03/31 08:56:37;;;;;;;;;;;;;;;;;;5058575;28;19913;-77
2021/03/31 08:59:03;;;;;;;;;;;;;;;;;;5016933;28;19919;-77
2021/03/31 09:01:29;;;;;;;;;;;;;;;;;;5050246;28;19919;-77
2021/03/31 09:04:13;;;;;;;;;;;;;;;;;;5044682;28;20011;-76
2021/03/31 09:06:38;;;;;;;;;;;;;;;;;;5046603;28;20381;-76
2021/03/31 09:09:04;;;;;;;;;;;;;;;;;;5030948;28;19952;-77
2021/03/31 09:11:29;;;;;;;;;;;;;;;;;;5048835;28;19913;-77
2021/03/31 09:13:55;;;;;;;;;;;;;;;;;;5039013;28;19975;-77
2021/03/31 09:16:20;;;;;;;;;;;;;;;;;;5041920;28;20003;-77
2021/03/31 09:18:45;;;;;;;;;;;;;;;;;;5033189;28;19916;-77
2021/03/31 09:21:11;;;;;;;;;;;;;;;;;;5033110;28;19974;-77
2021/03/31 09:23:37;;;;;;;;;;;;;;;;;;5058605;28;20382;-77
2021/03/31 09:26:04;;;;;;;;;;;;;;;;;;5033306;28;20046;-77
2021/03/31 09:28:29;;;;;;;;;;;;;;;;;;5033105;28;19909;-77
2021/03/31 09:30:57;;;;;;;;;;;;;;;;;;5058585;28;19924;-77
2021/03/31 09:33:28;;;;;;;;;;;;;;;;;;5033602;28;20283;-76
2021/03/31 09:35:53;;;;;;;;;;;;;;;;;;5038119;28;19908;-77
2021/03/31 09:38:25;;;;;;;;;;;;;;;;;;5062504;28;19923;-77
2021/03/31 09:41:01;;;;;;;;;;;;;;;;;;5051088;28;19908;-77
2021/03/31 09:43:26;;;;;;;;;;;;;;;;;;5054039;28;19915;-77
2021/03/31 09:45:56;;;;;;;;;;;;;;;;;;5054251;28;19999;-76
2021/03/31 09:48:21;;;;;;;;;;;;;;;;;;5061644;28;19995;-77
2021/03/31 09:50:46;;;;;;;;;;;;;;;;;;5037422;28;20003;-76
2021/03/31 09:53:11;;;;;;;;;;;;;;;;;;5053656;28;19913;-76
2021/03/31 09:55:37;;;;;;;;;;;;;;;;;;5061477;28;20003;-79
2021/03/31 09:58:02;;;;;;;;;;;;;;;;;;5020175;28;19995;-76
2021/03/31 10:00:27;;;;;;;;;;;;;;;;;;5041876;28;19912;-77
2021/03/31 10:02:55;;;;;;;;;;;;;;;;;;5044541;28;19921;-76
2021/03/31 10:05:25;;;;;;;;;;;;;;;;;;5028582;28;19919;-76
2021/03/31 10:07:56;;;;;;;;;;;;;;;;;;5037586;28;20320;-77
2021/03/31 10:10:41;;;;;;;;;;;;;;;;;;5053053;28;19909;-76
2021/03/31 10:13:06;;;;;;;;;;;;;;;;;;5069833;28;20321;-77
2021/03/31 10:15:32;;;;;;;;;;;;;;;;;;5048365;28;19920;-76
2021/03/31 10:17:57;;;;;;;;;;;;;;;;;;5042726;28;19931;-76
2021/03/31 10:20:22;;;;;;;;;;;;;;;;;;5053034;28;19927;-76
2021/03/31 10:22:51;;;;;;;;;;;;;;;;;;5058721;28;19913;-77
2021/03/31 10:25:43;;;;;;;;;;;;;;;;;;5063462;28;19909;-76
2021/03/31 10:28:08;;;;;;;;;;;;;;;;;;5030717;28;19912;-77
2021/03/31 10:30:34;;;;;;;;;;;;;;;;;;5035362;28;20324;-77
2021/03/31 10:32:59;;;;;;;;;;;;;;;;;;5051838;28;19917;-76
2021/03/31 10:35:45;;;;;;;;;;;;;;;;;;5052162;28;19927;-77
2021/03/31 10:38:20;;;;;;;;;;;;;;;;;;5052288;28;19916;-76
2021/03/31 10:41:08;;;;;;;;;;;;;;;;;;5042597;28;19956;-77
2021/03/31 10:49:56;;;;;;;;;;;;;;;;;;5037551;28;19920;-77
2021/03/31 10:52:03;;;;;;;;;;;;;;;;;;5046463;28;19920;-77
2021/03/31 10:54:29;;;;;;;;;;;;;;;;;;5046917;28;19987;-77
2021/03/31 10:57:05;;;;;;;;;;;;;;;;;;5060419;28;19982;-78
2021/03/31 10:59:31;;;;;;;;;;;;;;;;;;5045367;28;20264;-77
2021/03/31 11:01:56;;;;;;;;;;;;;;;;;;5060622;28;19970;-77
2021/03/31 11:04:22;;;;;;;;;;;;;;;;;;5051860;28;19912;-77
2021/03/31 11:06:47;;;;;;;;;;;;;;;;;;5068925;28;20019;-77
2021/03/31 11:09:12;;;;;;;;;;;;;;;;;;5052545;28;19913;-77
2021/03/31 11:11:37;;;;;;;;;;;;;;;;;;5060314;28;19908;-78
2021/03/31 11:14:03;;;;;;;;;;;;;;;;;;5018978;28;20047;-77
2021/03/31 11:16:28;;;;;;;;;;;;;;;;;;5048860;28;19959;-77
2021/03/31 11:26:37;;;;;;;;;;;;;;;;;;5058623;28;19962;-77
2021/03/31 11:29:02;;;;;;;;;;;;;;;;;;5018318;28;19913;-77
2021/03/31 11:31:27;;;;;;;;;;;;;;;;;;5059792;28;19913;-77
2021/03/31 11:33:53;;;;;;;;;;;;;;;;;;5043226;28;19909;-77
2021/03/31 11:36:18;;;;;;;;;;;;;;;;;;5051476;28;19966;-78
2021/03/31 11:38:44;;;;;;;;;;;;;;;;;;5034411;28;19956;-77
2021/03/31 11:41:09;;;;;;;;;;;;;;;;;;5018630;28;19951;-77
2021/03/31 11:43:35;;;;;;;;;;;;;;;;;;5026413;28;19912;-77
2021/03/31 11:46:00;;;;;;;;;;;;;;;;;;5034801;28;19912;-77
2021/03/31 11:48:25;;;;;;;;;;;;;;;;;;5060080;28;20374;-77
2021/03/31 11:50:51;;;;;;;;;;;;;;;;;;5059838;28;19916;-77
2021/03/31 11:53:16;;;;;;;;;;;;;;;;;;5032450;28;20297;-77
2021/03/31 11:55:42;;;;;;;;;;;;;;;;;;5034484;28;19912;-77
2021/03/31 11:58:07;;;;;;;;;;;;;;;;;;5041923;28;19935;-77
2021/03/31 12:00:35;;;;;;;;;;;;;;;;;;5058671;28;19999;-77
2021/03/31 12:03:01;;;;;;;;;;;;;;;;;;5042984;28;20020;-77
2021/03/31 12:05:26;;;;;;;;;;;;;;;;;;5042836;28;19912;-77
2021/03/31 12:07:51;;;;;;;;;;;;;;;;;;5023582;28;19913;-77
2021/03/31 12:10:17;;;;;;;;;;;;;;;;;;5042438;28;20007;-77
2021/03/31 12:12:42;;;;;;;;;;;;;;;;;;5033945;28;19927;-78
2021/03/31 12:15:08;;;;;;;;;;;;;;;;;;5058191;28;20358;-77
2021/03/31 12:17:34;;;;;;;;;;;;;;;;;;5042989;28;20007;-77
2021/03/31 12:20:00;;;;;;;;;;;;;;;;;;5059712;28;19995;-77
2021/03/31 12:22:25;;;;;;;;;;;;;;;;;;5050698;28;20008;-77
2021/03/31 12:24:51;;;;;;;;;;;;;;;;;;5014664;28;20003;-77
2021/03/31 12:27:19;;;;;;;;;;;;;;;;;;5017187;28;20354;-77
2021/03/31 12:29:45;;;;;;;;;;;;;;;;;;5058745;28;20833;-77
2021/03/31 12:32:14;;;;;;;;;;;;;;;;;;5041982;28;19923;-77
2021/03/31 12:34:39;;;;;;;;;;;;;;;;;;5050451;28;19908;-77
2021/03/31 12:37:05;;;;;;;;;;;;;;;;;;5050216;28;19970;-77
2021/03/31 12:39:30;;;;;;;;;;;;;;;;;;5033371;28;19917;-77
2021/03/31 12:41:56;;;;;;;;;;;;;;;;;;5033790;28;19959;-77
2021/03/31 12:44:21;;;;;;;;;;;;;;;;;;5038866;28;20015;-77
2021/03/31 12:46:46;;;;;;;;;;;;;;;;;;5043043;28;20259;-78
2021/03/31 12:49:12;;;;;;;;;;;;;;;;;;5059157;28;19944;-77
2021/03/31 12:51:42;;;;;;;;;;;;;;;;;;5044285;28;19913;-77
2021/03/31 12:54:33;;;;;;;;;;;;;;;;;;5017313;28;20045;-77
2021/03/31 12:56:56;;;;;;;;;;;;;;;;;;5055377;28;19942;-78
2021/03/31 12:59:21;;;;;;;;;;;;;;;;;;5017011;28;20053;-80
2021/03/31 13:01:47;;;;;;;;;;;;;;;;;;5038963;28;19916;-77
2021/03/31 13:04:13;;;;;;;;;;;;;;;;;;5033506;28;20047;-75
2021/03/31 13:06:39;;;;;;;;;;;;;;;;;;5033934;28;19913;-77
2021/03/31 13:09:05;;;;;;;;;;;;;;;;;;5041479;28;20033;-77
2021/03/31 13:11:30;;;;;;;;;;;;;;;;;;5020961;28;19959;-76
2021/03/31 13:22:13;;;;;;;;;;;;;;;;;;5054258;28;19995;-77
2021/03/31 13:24:43;;;;;;;;;;;;;;;;;;5039087;28;19913;-77
2021/03/31 13:29:57;;;;;;;;;;;;;;;;;;5054421;28;19999;-77
2021/03/31 13:32:28;;;;;;;;;;;;;;;;;;5061795;28;19917;-76
2021/03/31 13:35:07;;;;;;;;;;;;;;;;;;5048680;28;19912;-77
2021/03/31 13:37:38;;;;;;;;;;;;;;;;;;5039265;28;20007;-77
2021/03/31 13:40:06;;;;;;;;;;;;;;;;;;5037499;28;20282;-77
2021/03/31 13:42:32;;;;;;;;;;;;;;;;;;5032826;28;20334;-77
2021/03/31 13:44:57;;;;;;;;;;;;;;;;;;5037093;28;19905;-77
2021/03/31 13:47:25;;;;;;;;;;;;;;;;;;5061745;28;19921;-77
2021/03/31 13:50:02;;;;;;;;;;;;;;;;;;5051293;28;19908;-76
2021/03/31 13:52:33;;;;;;;;;;;;;;;;;;5037646;28;19999;-76
2021/03/31 13:55:04;;;;;;;;;;;;;;;;;;5063344;28;19921;-77
2021/03/31 13:57:36;;;;;;;;;;;;;;;;;;5051521;28;19920;-77
2021/03/31 14:00:03;;;;;;;;;;;;;;;;;;5037372;28;20031;-77
2021/03/31 14:02:28;;;;;;;;;;;;;;;;;;5044861;28;20370;-76
2021/03/31 14:04:53;;;;;;;;;;;;;;;;;;5031210;28;19916;-77
2021/03/31 14:07:19;;;;;;;;;;;;;;;;;;5043572;28;19963;-77
2021/03/31 14:09:45;;;;;;;;;;;;;;;;;;5052856;28;20302;-77
2021/03/31 14:12:10;;;;;;;;;;;;;;;;;;5061765;28;19917;-77
2021/03/31 14:14:35;;;;;;;;;;;;;;;;;;5036336;28;20313;-77
2021/03/31 14:17:05;;;;;;;;;;;;;;;;;;5036030;28;19966;-77
2021/03/31 14:19:36;;;;;;;;;;;;;;;;;;5046484;28;20409;-77
2021/03/31 14:22:01;;;;;;;;;;;;;;;;;;5043623;28;20386;-77
2021/03/31 14:24:27;;;;;;;;;;;;;;;;;;5035900;28;19916;-77
2021/03/31 14:26:52;;;;;;;;;;;;;;;;;;5052731;28;19916;-77
2021/03/31 14:29:17;;;;;;;;;;;;;;;;;;5061179;28;19913;-77
2021/03/31 14:31:43;;;;;;;;;;;;;;;;;;5052592;28;19913;-77
2021/03/31 14:34:08;;;;;;;;;;;;;;;;;;5061672;28;19919;-77
2021/03/31 14:36:35;;;;;;;;;;;;;;;;;;5052605;28;19909;-77
2021/03/31 14:39:00;;;;;;;;;;;;;;;;;;5035853;28;20703;-76
2021/03/31 14:41:25;;;;;;;;;;;;;;;;;;5044562;28;20012;-77
2021/03/31 14:43:51;;;;;;;;;;;;;;;;;;5046018;28;19913;-77
2021/03/31 14:46:17;;;;;;;;;;;;;;;;;;5060350;28;19912;-77
2021/03/31 14:48:43;;;;;;;;;;;;;;;;;;5060361;28;19913;-77
2021/03/31 14:51:09;;;;;;;;;;;;;;;;;;5060757;28;19916;-77
2021/03/31 15:01:35;;;;;;;;;;;;;;;;;;5019923;28;19992;-77
2021/03/31 15:04:00;;;;;;;;;;;;;;;;;;5060896;28;19917;-77
2021/03/31 15:06:25;;;;;;;;;;;;;;;;;;5018777;28;19908;-77
2021/03/31 15:08:51;;;;;;;;;;;;;;;;;;5051894;28;20402;-76
2021/03/31 15:11:16;;;;;;;;;;;;;;;;;;5060264;28;19916;-77
2021/03/31 15:13:41;;;;;;;;;;;;;;;;;;5018460;28;19917;-77
2021/03/31 15:16:07;;;;;;;;;;;;;;;;;;5025514;28;19916;-77
2021/03/31 15:18:32;;;;;;;;;;;;;;;;;;5035324;28;20050;-77
2021/03/31 15:21:10;;;;;;;;;;;;;;;;;;5051409;28;19913;-77
2021/03/31 15:23:45;;;;;;;;;;;;;;;;;;5036427;28;20282;-77
2021/03/31 15:26:11;;;;;;;;;;;;;;;;;;5046439;28;19960;-77
2021/03/31 15:28:36;;;;;;;;;;;;;;;;;;5046621;28;20423;-77
2021/03/31 15:31:02;;;;;;;;;;;;;;;;;;5018738;28;20049;-77
2021/03/31 15:33:27;;;;;;;;;;;;;;;;;;5043506;28;19908;-77
2021/03/31 15:35:52;;;;;;;;;;;;;;;;;;5034461;28;19912;-77
2021/03/31 15:38:18;;;;;;;;;;;;;;;;;;5035172;28;19908;-77
2021/03/31 15:40:43;;;;;;;;;;;;;;;;;;5042187;28;19952;-77
2021/03/31 15:43:08;;;;;;;;;;;;;;;;;;5057511;28;19909;-77
2021/03/31 15:45:34;;;;;;;;;;;;;;;;;;5043527;28;19915;-77
2021/03/31 15:47:59;;;;;;;;;;;;;;;;;;5051482;28;19978;-77
2021/03/31 15:50:25;;;;;;;;;;;;;;;;;;5034498;28;19927;-77
2021/03/31 15:52:50;;;;;;;;;;;;;;;;;;5034689;28;20023;-77
2021/03/31 15:55:15;;;;;;;;;;;;;;;;;;5059730;28;19913;-77
2021/03/31 15:57:41;;;;;;;;;;;;;;;;;;5050917;28;19952;-77
2021/03/31 16:00:07;;;;;;;;;;;;;;;;;;5033745;28;20297;-77
2021/03/31 16:02:33;;;;;;;;;;;;;;;;;;5062394;28;19923;-77
2021/03/31 16:04:58;;;;;;;;;;;;;;;;;;5050804;28;19957;-77
2021/03/31 16:07:32;;;;;;;;;;;;;;;;;;5042910;28;19916;-77
2021/03/31 16:09:58;;;;;;;;;;;;;;;;;;5050641;28;19916;-77
2021/03/31 16:12:23;;;;;;;;;;;;;;;;;;5050686;28;19912;-77
2021/03/31 16:14:48;;;;;;;;;;;;;;;;;;5034111;28;19912;-77
2021/03/31 16:17:14;;;;;;;;;;;;;;;;;;5048656;28;19924;-77
2021/03/31 16:19:40;;;;;;;;;;;;;;;;;;5059259;28;19967;-77
2021/03/31 16:22:05;;;;;;;;;;;;;;;;;;5033723;28;19952;-77
2021/03/31 16:24:30;;;;;;;;;;;;;;;;;;5050726;28;19971;-77
2021/03/31 16:26:56;;;;;;;;;;;;;;;;;;5059086;28;19915;-77
2021/03/31 16:31:25;;;;;;;;;;;;;;;;;;5017648;28;19920;-78
2021/03/31 16:32:15;;;;;;;;;;;;;;;;;;5054413;28;19928;-77
2021/03/31 16:34:41;;;;;;;;;;;;;;;;;;5057236;28;19917;-77
2021/03/31 16:37:09;;;;;;;;;;;;;;;;;;5033971;28;20366;-77
2021/03/31 16:39:34;;;;;;;;;;;;;;;;;;5033804;28;19908;-78
2021/03/31 16:42:00;;;;;;;;;;;;;;;;;;5025148;28;19916;-77
2021/03/31 16:44:26;;;;;;;;;;;;;;;;;;5033391;28;20271;-77
2021/03/31 16:46:51;;;;;;;;;;;;;;;;;;5033517;28;19923;-77
2021/03/31 16:49:19;;;;;;;;;;;;;;;;;;5033959;28;19999;-77
2021/03/31 16:51:47;;;;;;;;;;;;;;;;;;5050081;28;20012;-77
2021/03/31 16:54:12;;;;;;;;;;;;;;;;;;5058858;28;20003;-77
2021/03/31 16:56:38;;;;;;;;;;;;;;;;;;5017169;28;20039;-77
2021/03/31 16:59:04;;;;;;;;;;;;;;;;;;5058652;28;19913;-77
2021/03/31 17:01:30;;;;;;;;;;;;;;;;;;5050224;28;19956;-76
2021/03/31 17:03:56;;;;;;;;;;;;;;;;;;5050024;28;19913;-76
2021/03/31 17:06:21;;;;;;;;;;;;;;;;;;5034285;28;20409;-78
2021/03/31 17:08:46;;;;;;;;;;;;;;;;;;5034128;28;19915;-78
2021/03/31 17:11:12;;;;;;;;;;;;;;;;;;5067155;28;19923;-77
2021/03/31 17:13:37;;;;;;;;;;;;;;;;;;5050419;28;19915;-78
2021/03/31 17:16:02;;;;;;;;;;;;;;;;;;5017523;28;19924;-78
2021/03/31 17:18:28;;;;;;;;;;;;;;;;;;5050499;28;19909;-77